sensor_id;sensor_type;location;lat;lon;timestamp;temperature;humidity
1123;DHT22;548;48.778;9.252;2022-07-29T00:01:33;20.70;99.90
1123;DHT22;548;48.778;9.252;2022-07-29T00:04:01;20.80;99.90
1123;DHT22;548;48.778;9.252;2022-07-29T00:06:28;20.80;99.90
1123;DHT22;548;48.778;9.252;2022-07-29T00:08:55;20.70;99.90
1123;DHT22;548;48.778;9.252;2022-07-29T00:11:21;20.70;99.90
1123;DHT22;548;48.778;9.252;2022-07-29T00:13:48;20.70;99.90
1123;DHT22;548;48.778;9.252;2022-07-29T00:16:15;20.70;99.90
1123;DHT22;548;48.778;9.252;2022-07-29T00:18:41;20.70;99.90
1123;DHT22;548;48.778;9.252;2022-07-29T00:21:09;20.80;99.90
1123;DHT22;548;48.778;9.252;2022-07-29T00:23:36;20.80;99.90
1123;DHT22;548;48.778;9.252;2022-07-29T00:26:03;20.80;99.90
1123;DHT22;548;48.778;9.252;2022-07-29T00:28:29;20.80;99.90
1123;DHT22;548;48.778;9.252;2022-07-29T00:30:56;20.70;99.90
1123;DHT22;548;48.778;9.252;2022-07-29T00:33:23;20.70;99.90
1123;DHT22;548;48.778;9.252;2022-07-29T00:35:49;20.70;99.90
1123;DHT22;548;48.778;9.252;2022-07-29T00:38:18;20.60;99.90
1123;DHT22;548;48.778;9.252;2022-07-29T00:40:45;20.50;99.90
1123;DHT22;548;48.778;9.252;2022-07-29T00:43:13;20.50;99.90
1123;DHT22;548;48.778;9.252;2022-07-29T00:45:40;20.50;99.90
1123;DHT22;548;48.778;9.252;2022-07-29T00:48:07;20.50;99.90
1123;DHT22;548;48.778;9.252;2022-07-29T00:50:35;20.40;99.90
1123;DHT22;548;48.778;9.252;2022-07-29T00:53:03;20.30;99.90
1123;DHT22;548;48.778;9.252;2022-07-29T00:55:31;20.40;99.90
1123;DHT22;548;48.778;9.252;2022-07-29T00:57:58;20.30;99.90
1123;DHT22;548;48.778;9.252;2022-07-29T01:00:27;20.30;99.90
1123;DHT22;548;48.778;9.252;2022-07-29T01:02:54;20.30;99.90
1123;DHT22;548;48.778;9.252;2022-07-29T01:05:22;20.30;99.90
1123;DHT22;548;48.778;9.252;2022-07-29T01:07:53;20.30;99.90
1123;DHT22;548;48.778;9.252;2022-07-29T01:10:21;20.40;99.90
1123;DHT22;548;48.778;9.252;2022-07-29T01:12:51;20.30;99.90
1123;DHT22;548;48.778;9.252;2022-07-29T01:15:18;20.20;99.90
1123;DHT22;548;48.778;9.252;2022-07-29T01:17:48;20.20;99.90
1123;DHT22;548;48.778;9.252;2022-07-29T01:20:23;20.10;99.90
1123;DHT22;548;48.778;9.252;2022-07-29T01:23:12;20.10;99.90
1123;DHT22;548;48.778;9.252;2022-07-29T01:26:02;20.10;99.90
1123;DHT22;548;48.778;9.252;2022-07-29T01:28:47;20.10;99.90
1123;DHT22;548;48.778;9.252;2022-07-29T01:31:18;20.20;99.90
1123;DHT22;548;48.778;9.252;2022-07-29T01:33:50;20.30;99.90
1123;DHT22;548;48.778;9.252;2022-07-29T01:36:23;20.30;99.90
1123;DHT22;548;48.778;9.252;2022-07-29T01:38:59;20.30;99.90
1123;DHT22;548;48.778;9.252;2022-07-29T01:41:32;20.30;99.90
1123;DHT22;548;48.778;9.252;2022-07-29T01:44:09;20.30;99.90
1123;DHT22;548;48.778;9.252;2022-07-29T01:46:39;20.30;99.90
1123;DHT22;548;48.778;9.252;2022-07-29T01:49:11;20.20;99.90
1123;DHT22;548;48.778;9.252;2022-07-29T01:51:43;20.20;99.90
1123;DHT22;548;48.778;9.252;2022-07-29T01:54:16;20.10;99.90
1123;DHT22;548;48.778;9.252;2022-07-29T01:56:46;20.00;99.90
1123;DHT22;548;48.778;9.252;2022-07-29T01:59:16;19.90;99.90
1123;DHT22;548;48.778;9.252;2022-07-29T02:01:45;19.90;99.90
1123;DHT22;548;48.778;9.252;2022-07-29T02:04:15;19.80;99.90
1123;DHT22;548;48.778;9.252;2022-07-29T02:06:44;19.90;99.90
1123;DHT22;548;48.778;9.252;2022-07-29T02:09:14;19.90;99.90
1123;DHT22;548;48.778;9.252;2022-07-29T02:11:48;19.90;99.90
1123;DHT22;548;48.778;9.252;2022-07-29T02:14:18;19.90;99.90
1123;DHT22;548;48.778;9.252;2022-07-29T02:16:46;19.80;99.90
1123;DHT22;548;48.778;9.252;2022-07-29T02:19:14;19.70;99.90
1123;DHT22;548;48.778;9.252;2022-07-29T02:21:44;19.60;99.90
1123;DHT22;548;48.778;9.252;2022-07-29T02:24:12;19.50;99.90
1123;DHT22;548;48.778;9.252;2022-07-29T02:26:41;19.50;99.90
1123;DHT22;548;48.778;9.252;2022-07-29T02:29:09;19.60;99.90
1123;DHT22;548;48.778;9.252;2022-07-29T02:31:39;19.60;99.90
1123;DHT22;548;48.778;9.252;2022-07-29T02:34:10;19.70;99.90
1123;DHT22;548;48.778;9.252;2022-07-29T02:36:38;19.70;99.90
1123;DHT22;548;48.778;9.252;2022-07-29T02:39:07;19.60;99.90
1123;DHT22;548;48.778;9.252;2022-07-29T02:41:41;19.60;99.90
1123;DHT22;548;48.778;9.252;2022-07-29T02:44:10;19.50;99.90
1123;DHT22;548;48.778;9.252;2022-07-29T02:46:45;19.60;99.90
1123;DHT22;548;48.778;9.252;2022-07-29T02:49:16;19.60;99.90
1123;DHT22;548;48.778;9.252;2022-07-29T02:51:46;19.50;99.90
1123;DHT22;548;48.778;9.252;2022-07-29T02:54:22;19.50;99.90
1123;DHT22;548;48.778;9.252;2022-07-29T02:56:51;19.50;99.90
1123;DHT22;548;48.778;9.252;2022-07-29T02:59:24;19.50;99.90
1123;DHT22;548;48.778;9.252;2022-07-29T03:01:55;19.50;99.90
1123;DHT22;548;48.778;9.252;2022-07-29T03:04:23;19.40;99.90
1123;DHT22;548;48.778;9.252;2022-07-29T03:06:52;19.30;99.90
1123;DHT22;548;48.778;9.252;2022-07-29T03:09:20;19.20;99.90
1123;DHT22;548;48.778;9.252;2022-07-29T03:11:47;19.20;99.90
1123;DHT22;548;48.778;9.252;2022-07-29T03:14:14;19.00;99.90
1123;DHT22;548;48.778;9.252;2022-07-29T03:16:42;18.90;99.90
1123;DHT22;548;48.778;9.252;2022-07-29T03:19:10;18.90;99.90
1123;DHT22;548;48.778;9.252;2022-07-29T03:21:37;18.80;99.90
1123;DHT22;548;48.778;9.252;2022-07-29T03:24:04;18.70;99.90
1123;DHT22;548;48.778;9.252;2022-07-29T03:26:31;18.70;99.90
1123;DHT22;548;48.778;9.252;2022-07-29T03:28:57;18.70;99.90
1123;DHT22;548;48.778;9.252;2022-07-29T03:31:24;18.70;99.90
1123;DHT22;548;48.778;9.252;2022-07-29T03:33:51;18.70;99.90
1123;DHT22;548;48.778;9.252;2022-07-29T03:36:19;18.70;99.90
1123;DHT22;548;48.778;9.252;2022-07-29T03:38:46;18.60;99.90
1123;DHT22;548;48.778;9.252;2022-07-29T03:41:14;18.70;99.90
1123;DHT22;548;48.778;9.252;2022-07-29T03:43:43;18.60;99.90
1123;DHT22;548;48.778;9.252;2022-07-29T03:46:11;18.60;99.90
1123;DHT22;548;48.778;9.252;2022-07-29T03:48:42;18.70;99.90
1123;DHT22;548;48.778;9.252;2022-07-29T03:51:12;18.80;99.90
1123;DHT22;548;48.778;9.252;2022-07-29T03:53:40;18.80;99.90
1123;DHT22;548;48.778;9.252;2022-07-29T03:56:08;18.80;99.90
1123;DHT22;548;48.778;9.252;2022-07-29T03:58:37;18.80;99.90
1123;DHT22;548;48.778;9.252;2022-07-29T04:01:04;18.80;99.90
1123;DHT22;548;48.778;9.252;2022-07-29T04:03:31;18.80;99.90
1123;DHT22;548;48.778;9.252;2022-07-29T04:05:59;18.80;99.90
1123;DHT22;548;48.778;9.252;2022-07-29T04:08:26;18.90;99.90
1123;DHT22;548;48.778;9.252;2022-07-29T04:10:54;18.90;99.90
1123;DHT22;548;48.778;9.252;2022-07-29T04:13:21;19.00;99.90
1123;DHT22;548;48.778;9.252;2022-07-29T04:15:48;19.10;99.90
1123;DHT22;548;48.778;9.252;2022-07-29T04:18:14;19.20;99.90
1123;DHT22;548;48.778;9.252;2022-07-29T04:20:41;19.40;99.90
1123;DHT22;548;48.778;9.252;2022-07-29T04:23:08;19.50;99.90
1123;DHT22;548;48.778;9.252;2022-07-29T04:25:37;19.60;99.90
1123;DHT22;548;48.778;9.252;2022-07-29T04:28:05;19.60;99.90
1123;DHT22;548;48.778;9.252;2022-07-29T04:30:33;19.60;99.90
1123;DHT22;548;48.778;9.252;2022-07-29T04:33:01;19.60;99.90
1123;DHT22;548;48.778;9.252;2022-07-29T04:35:28;19.70;99.90
1123;DHT22;548;48.778;9.252;2022-07-29T04:37:55;19.60;99.90
1123;DHT22;548;48.778;9.252;2022-07-29T04:40:22;19.60;99.90
1123;DHT22;548;48.778;9.252;2022-07-29T04:42:48;19.60;99.90
1123;DHT22;548;48.778;9.252;2022-07-29T04:45:16;19.70;99.90
1123;DHT22;548;48.778;9.252;2022-07-29T04:47:43;19.80;99.90
1123;DHT22;548;48.778;9.252;2022-07-29T04:50:10;20.10;99.90
1123;DHT22;548;48.778;9.252;2022-07-29T04:52:37;20.40;99.90
1123;DHT22;548;48.778;9.252;2022-07-29T04:55:05;20.80;99.90
1123;DHT22;548;48.778;9.252;2022-07-29T04:57:32;21.20;99.90
1123;DHT22;548;48.778;9.252;2022-07-29T04:59:59;21.40;99.90
1123;DHT22;548;48.778;9.252;2022-07-29T05:02:27;21.40;99.90
1123;DHT22;548;48.778;9.252;2022-07-29T05:04:54;21.40;99.90
1123;DHT22;548;48.778;9.252;2022-07-29T05:07:21;21.70;99.90
1123;DHT22;548;48.778;9.252;2022-07-29T05:09:47;21.90;99.90
1123;DHT22;548;48.778;9.252;2022-07-29T05:12:14;22.20;99.90
1123;DHT22;548;48.778;9.252;2022-07-29T05:14:41;22.50;99.90
1123;DHT22;548;48.778;9.252;2022-07-29T05:17:07;22.70;99.90
1123;DHT22;548;48.778;9.252;2022-07-29T05:19:35;22.70;99.90
1123;DHT22;548;48.778;9.252;2022-07-29T05:22:02;22.60;99.90
1123;DHT22;548;48.778;9.252;2022-07-29T05:24:29;22.60;99.90
1123;DHT22;548;48.778;9.252;2022-07-29T05:26:55;22.80;99.90
1123;DHT22;548;48.778;9.252;2022-07-29T05:29:22;22.90;99.90
1123;DHT22;548;48.778;9.252;2022-07-29T05:31:49;22.90;99.90
1123;DHT22;548;48.778;9.252;2022-07-29T05:34:17;22.70;99.90
1123;DHT22;548;48.778;9.252;2022-07-29T05:36:45;22.80;99.90
1123;DHT22;548;48.778;9.252;2022-07-29T05:39:12;23.00;99.90
1123;DHT22;548;48.778;9.252;2022-07-29T05:41:39;23.10;99.90
1123;DHT22;548;48.778;9.252;2022-07-29T05:44:06;23.30;99.90
1123;DHT22;548;48.778;9.252;2022-07-29T05:46:33;23.30;99.90
1123;DHT22;548;48.778;9.252;2022-07-29T05:48:59;23.60;99.90
1123;DHT22;548;48.778;9.252;2022-07-29T05:51:28;23.60;99.90
1123;DHT22;548;48.778;9.252;2022-07-29T05:53:56;23.60;99.90
1123;DHT22;548;48.778;9.252;2022-07-29T05:56:23;23.90;99.90
1123;DHT22;548;48.778;9.252;2022-07-29T05:58:50;23.90;99.90
1123;DHT22;548;48.778;9.252;2022-07-29T06:01:17;24.00;99.90
1123;DHT22;548;48.778;9.252;2022-07-29T06:03:44;23.70;99.90
1123;DHT22;548;48.778;9.252;2022-07-29T06:06:11;23.50;99.90
1123;DHT22;548;48.778;9.252;2022-07-29T06:08:38;23.80;99.90
1123;DHT22;548;48.778;9.252;2022-07-29T06:11:07;23.90;99.90
1123;DHT22;548;48.778;9.252;2022-07-29T06:13:34;24.00;99.90
1123;DHT22;548;48.778;9.252;2022-07-29T06:16:01;24.40;99.90
1123;DHT22;548;48.778;9.252;2022-07-29T06:18:27;24.70;99.90
1123;DHT22;548;48.778;9.252;2022-07-29T06:20:57;25.00;99.90
1123;DHT22;548;48.778;9.252;2022-07-29T06:23:45;25.30;99.90
1123;DHT22;548;48.778;9.252;2022-07-29T06:26:39;25.30;99.90
1123;DHT22;548;48.778;9.252;2022-07-29T06:29:06;25.70;99.90
1123;DHT22;548;48.778;9.252;2022-07-29T06:31:34;26.00;99.90
1123;DHT22;548;48.778;9.252;2022-07-29T06:34:00;26.10;99.90
1123;DHT22;548;48.778;9.252;2022-07-29T06:36:27;26.00;99.90
1123;DHT22;548;48.778;9.252;2022-07-29T06:38:54;26.10;99.90
1123;DHT22;548;48.778;9.252;2022-07-29T06:41:20;25.90;99.90
1123;DHT22;548;48.778;9.252;2022-07-29T06:43:49;26.00;99.90
1123;DHT22;548;48.778;9.252;2022-07-29T06:46:17;26.50;99.90
1123;DHT22;548;48.778;9.252;2022-07-29T06:48:44;27.00;99.90
1123;DHT22;548;48.778;9.252;2022-07-29T06:51:12;27.10;99.90
1123;DHT22;548;48.778;9.252;2022-07-29T06:53:40;26.90;99.90
1123;DHT22;548;48.778;9.252;2022-07-29T06:56:07;26.80;99.90
1123;DHT22;548;48.778;9.252;2022-07-29T06:58:35;26.70;99.90
1123;DHT22;548;48.778;9.252;2022-07-29T07:01:05;26.20;99.90
1123;DHT22;548;48.778;9.252;2022-07-29T07:03:32;26.10;99.90
1123;DHT22;548;48.778;9.252;2022-07-29T07:05:59;26.20;99.90
1123;DHT22;548;48.778;9.252;2022-07-29T07:08:26;26.10;99.90
1123;DHT22;548;48.778;9.252;2022-07-29T07:10:53;26.10;99.90
1123;DHT22;548;48.778;9.252;2022-07-29T07:13:20;26.70;99.90
1123;DHT22;548;48.778;9.252;2022-07-29T07:15:47;27.20;99.90
1123;DHT22;548;48.778;9.252;2022-07-29T07:18:15;27.50;99.90
1123;DHT22;548;48.778;9.252;2022-07-29T07:20:43;27.70;99.90
1123;DHT22;548;48.778;9.252;2022-07-29T07:23:10;27.80;99.90
1123;DHT22;548;48.778;9.252;2022-07-29T07:25:37;27.80;99.90
1123;DHT22;548;48.778;9.252;2022-07-29T07:28:03;28.10;99.40
1123;DHT22;548;48.778;9.252;2022-07-29T07:30:30;28.50;98.70
1123;DHT22;548;48.778;9.252;2022-07-29T07:32:57;28.30;98.80
1123;DHT22;548;48.778;9.252;2022-07-29T07:35:25;27.60;99.90
1123;DHT22;548;48.778;9.252;2022-07-29T07:37:53;27.70;99.90
1123;DHT22;548;48.778;9.252;2022-07-29T07:40:19;27.30;99.90
1123;DHT22;548;48.778;9.252;2022-07-29T07:42:46;27.00;99.90
1123;DHT22;548;48.778;9.252;2022-07-29T07:45:13;27.20;99.90
1123;DHT22;548;48.778;9.252;2022-07-29T07:47:40;27.30;99.90
1123;DHT22;548;48.778;9.252;2022-07-29T07:50:08;26.90;99.90
1123;DHT22;548;48.778;9.252;2022-07-29T07:52:46;26.90;99.90
1123;DHT22;548;48.778;9.252;2022-07-29T07:55:13;27.70;99.90
1123;DHT22;548;48.778;9.252;2022-07-29T07:57:39;28.20;99.90
1123;DHT22;548;48.778;9.252;2022-07-29T08:00:07;28.40;99.20
1123;DHT22;548;48.778;9.252;2022-07-29T08:02:34;28.60;98.90
1123;DHT22;548;48.778;9.252;2022-07-29T08:05:00;28.40;98.80
1123;DHT22;548;48.778;9.252;2022-07-29T08:07:27;28.50;98.80
1123;DHT22;548;48.778;9.252;2022-07-29T08:09:55;29.00;97.80
1123;DHT22;548;48.778;9.252;2022-07-29T08:12:22;29.70;96.30
1123;DHT22;548;48.778;9.252;2022-07-29T08:14:49;30.10;95.20
1123;DHT22;548;48.778;9.252;2022-07-29T08:17:15;30.40;94.60
1123;DHT22;548;48.778;9.252;2022-07-29T08:19:42;31.00;92.90
1123;DHT22;548;48.778;9.252;2022-07-29T08:22:09;31.20;92.40
1123;DHT22;548;48.778;9.252;2022-07-29T08:24:36;31.50;92.40
1123;DHT22;548;48.778;9.252;2022-07-29T08:27:19;31.60;92.10
1123;DHT22;548;48.778;9.252;2022-07-29T08:29:46;32.20;90.50
1123;DHT22;548;48.778;9.252;2022-07-29T08:32:13;32.70;88.50
1123;DHT22;548;48.778;9.252;2022-07-29T08:34:40;32.70;85.90
1123;DHT22;548;48.778;9.252;2022-07-29T08:37:07;32.50;87.30
1123;DHT22;548;48.778;9.252;2022-07-29T08:39:34;32.50;86.10
1123;DHT22;548;48.778;9.252;2022-07-29T08:42:01;32.40;86.00
1123;DHT22;548;48.778;9.252;2022-07-29T08:44:29;32.90;85.30
1123;DHT22;548;48.778;9.252;2022-07-29T08:46:56;33.10;83.70
1123;DHT22;548;48.778;9.252;2022-07-29T08:49:22;33.40;83.40
1123;DHT22;548;48.778;9.252;2022-07-29T08:51:49;33.30;83.60
1123;DHT22;548;48.778;9.252;2022-07-29T08:54:17;33.50;81.60
1123;DHT22;548;48.778;9.252;2022-07-29T08:56:54;32.50;83.40
1123;DHT22;548;48.778;9.252;2022-07-29T08:59:40;32.90;82.40
1123;DHT22;548;48.778;9.252;2022-07-29T09:02:14;33.40;80.40
1123;DHT22;548;48.778;9.252;2022-07-29T09:04:41;33.90;77.80
1123;DHT22;548;48.778;9.252;2022-07-29T09:07:08;34.00;76.90
1123;DHT22;548;48.778;9.252;2022-07-29T09:09:35;35.10;73.00
1123;DHT22;548;48.778;9.252;2022-07-29T09:12:05;36.00;69.70
1123;DHT22;548;48.778;9.252;2022-07-29T09:14:34;35.80;69.20
1123;DHT22;548;48.778;9.252;2022-07-29T09:17:02;35.90;68.90
1123;DHT22;548;48.778;9.252;2022-07-29T09:19:30;36.50;66.10
1123;DHT22;548;48.778;9.252;2022-07-29T09:22:02;36.40;65.10
1123;DHT22;548;48.778;9.252;2022-07-29T09:24:40;36.40;65.40
1123;DHT22;548;48.778;9.252;2022-07-29T09:27:09;36.30;62.70
1123;DHT22;548;48.778;9.252;2022-07-29T09:29:36;36.30;63.90
1123;DHT22;548;48.778;9.252;2022-07-29T09:32:09;36.90;62.00
1123;DHT22;548;48.778;9.252;2022-07-29T09:34:36;37.50;59.40
1123;DHT22;548;48.778;9.252;2022-07-29T09:37:03;38.20;56.90
1123;DHT22;548;48.778;9.252;2022-07-29T09:39:32;38.70;55.00
1123;DHT22;548;48.778;9.252;2022-07-29T09:42:00;38.00;55.40
1123;DHT22;548;48.778;9.252;2022-07-29T09:44:40;38.00;55.90
1123;DHT22;548;48.778;9.252;2022-07-29T09:47:09;37.70;56.30
1123;DHT22;548;48.778;9.252;2022-07-29T09:49:51;37.50;56.60
1123;DHT22;548;48.778;9.252;2022-07-29T09:52:18;37.30;55.20
1123;DHT22;548;48.778;9.252;2022-07-29T09:54:45;37.50;54.60
1123;DHT22;548;48.778;9.252;2022-07-29T09:57:24;37.80;53.50
1123;DHT22;548;48.778;9.252;2022-07-29T09:59:59;38.50;52.20
1123;DHT22;548;48.778;9.252;2022-07-29T10:02:32;38.50;51.10
1123;DHT22;548;48.778;9.252;2022-07-29T10:05:00;39.10;51.00
1123;DHT22;548;48.778;9.252;2022-07-29T10:07:43;39.70;52.10
1123;DHT22;548;48.778;9.252;2022-07-29T10:10:10;39.20;51.80
1123;DHT22;548;48.778;9.252;2022-07-29T10:12:49;36.90;52.10
1123;DHT22;548;48.778;9.252;2022-07-29T10:15:16;36.20;56.70
1123;DHT22;548;48.778;9.252;2022-07-29T10:17:44;35.50;57.60
1123;DHT22;548;48.778;9.252;2022-07-29T10:20:11;34.80;58.60
1123;DHT22;548;48.778;9.252;2022-07-29T10:22:38;34.30;59.70
1123;DHT22;548;48.778;9.252;2022-07-29T10:25:06;34.00;60.90
1123;DHT22;548;48.778;9.252;2022-07-29T10:27:34;34.00;60.40
1123;DHT22;548;48.778;9.252;2022-07-29T10:30:00;34.80;59.50
1123;DHT22;548;48.778;9.252;2022-07-29T10:32:38;35.30;57.90
1123;DHT22;548;48.778;9.252;2022-07-29T10:35:32;36.20;55.70
1123;DHT22;548;48.778;9.252;2022-07-29T10:38:29;36.30;55.20
1123;DHT22;548;48.778;9.252;2022-07-29T10:41:03;35.10;56.50
1123;DHT22;548;48.778;9.252;2022-07-29T10:43:49;34.70;57.40
1123;DHT22;548;48.778;9.252;2022-07-29T10:46:16;34.20;57.30
1123;DHT22;548;48.778;9.252;2022-07-29T10:49:09;32.80;58.50
1123;DHT22;548;48.778;9.252;2022-07-29T10:51:54;32.10;60.70
1123;DHT22;548;48.778;9.252;2022-07-29T10:54:42;31.50;63.80
1123;DHT22;548;48.778;9.252;2022-07-29T10:57:15;30.90;74.70
1123;DHT22;548;48.778;9.252;2022-07-29T10:59:42;29.80;90.60
1123;DHT22;548;48.778;9.252;2022-07-29T11:02:45;28.10;99.90
1123;DHT22;548;48.778;9.252;2022-07-29T11:05:15;26.30;99.90
1123;DHT22;548;48.778;9.252;2022-07-29T11:08:23;25.00;99.90
1123;DHT22;548;48.778;9.252;2022-07-29T11:11:29;24.10;99.90
1123;DHT22;548;48.778;9.252;2022-07-29T11:13:48;23.40;99.90
1123;DHT22;548;48.778;9.252;2022-07-29T11:16:17;22.60;99.90
1123;DHT22;548;48.778;9.252;2022-07-29T11:19:18;21.70;99.90
1123;DHT22;548;48.778;9.252;2022-07-29T11:21:45;20.90;99.90
1123;DHT22;548;48.778;9.252;2022-07-29T11:24:16;20.60;99.90
1123;DHT22;548;48.778;9.252;2022-07-29T11:26:42;20.50;99.90
1123;DHT22;548;48.778;9.252;2022-07-29T11:29:18;20.30;99.90
1123;DHT22;548;48.778;9.252;2022-07-29T11:31:47;20.20;99.90
1123;DHT22;548;48.778;9.252;2022-07-29T11:34:22;20.10;99.90
1123;DHT22;548;48.778;9.252;2022-07-29T11:37:14;19.50;99.90
1123;DHT22;548;48.778;9.252;2022-07-29T11:39:44;19.10;99.90
1123;DHT22;548;48.778;9.252;2022-07-29T11:42:40;18.70;99.90
1123;DHT22;548;48.778;9.252;2022-07-29T11:45:09;18.40;99.90
1123;DHT22;548;48.778;9.252;2022-07-29T11:47:38;18.20;99.90
1123;DHT22;548;48.778;9.252;2022-07-29T11:50:07;18.10;99.90
1123;DHT22;548;48.778;9.252;2022-07-29T11:52:36;18.10;99.90
1123;DHT22;548;48.778;9.252;2022-07-29T11:55:10;18.10;99.90
1123;DHT22;548;48.778;9.252;2022-07-29T11:57:45;18.40;99.90
1123;DHT22;548;48.778;9.252;2022-07-29T12:00:21;18.50;99.90
1123;DHT22;548;48.778;9.252;2022-07-29T12:02:48;18.40;99.90
1123;DHT22;548;48.778;9.252;2022-07-29T12:05:16;18.40;99.90
1123;DHT22;548;48.778;9.252;2022-07-29T12:07:43;18.40;99.90
1123;DHT22;548;48.778;9.252;2022-07-29T12:10:11;18.50;99.90
1123;DHT22;548;48.778;9.252;2022-07-29T12:12:38;18.60;99.90
1123;DHT22;548;48.778;9.252;2022-07-29T12:15:15;18.80;99.90
1123;DHT22;548;48.778;9.252;2022-07-29T12:17:43;18.80;99.90
1123;DHT22;548;48.778;9.252;2022-07-29T12:20:10;18.90;99.90
1123;DHT22;548;48.778;9.252;2022-07-29T12:22:40;19.10;99.90
1123;DHT22;548;48.778;9.252;2022-07-29T12:25:12;19.40;99.90
1123;DHT22;548;48.778;9.252;2022-07-29T12:27:41;19.70;99.90
1123;DHT22;548;48.778;9.252;2022-07-29T12:30:10;20.00;99.90
1123;DHT22;548;48.778;9.252;2022-07-29T12:32:39;20.20;99.90
1123;DHT22;548;48.778;9.252;2022-07-29T12:35:08;20.30;99.90
1123;DHT22;548;48.778;9.252;2022-07-29T12:37:36;20.70;99.90
1123;DHT22;548;48.778;9.252;2022-07-29T12:40:04;21.00;99.90
1123;DHT22;548;48.778;9.252;2022-07-29T12:42:33;21.30;99.90
1123;DHT22;548;48.778;9.252;2022-07-29T12:45:00;21.40;99.90
1123;DHT22;548;48.778;9.252;2022-07-29T12:47:28;21.20;99.90
1123;DHT22;548;48.778;9.252;2022-07-29T12:50:08;21.10;99.90
1123;DHT22;548;48.778;9.252;2022-07-29T12:52:36;21.10;99.90
1123;DHT22;548;48.778;9.252;2022-07-29T12:55:03;21.10;99.90
1123;DHT22;548;48.778;9.252;2022-07-29T12:57:30;21.30;99.90
1123;DHT22;548;48.778;9.252;2022-07-29T13:00:07;21.40;99.90
1123;DHT22;548;48.778;9.252;2022-07-29T13:02:35;21.20;99.90
1123;DHT22;548;48.778;9.252;2022-07-29T13:05:03;21.10;99.90
1123;DHT22;548;48.778;9.252;2022-07-29T13:07:32;21.20;99.90
1123;DHT22;548;48.778;9.252;2022-07-29T13:10:14;21.20;99.90
1123;DHT22;548;48.778;9.252;2022-07-29T13:13:02;21.10;99.90
1123;DHT22;548;48.778;9.252;2022-07-29T13:15:31;21.00;99.90
1123;DHT22;548;48.778;9.252;2022-07-29T13:17:58;20.90;99.90
1123;DHT22;548;48.778;9.252;2022-07-29T13:20:27;20.70;99.90
1123;DHT22;548;48.778;9.252;2022-07-29T13:22:55;20.60;99.90
1123;DHT22;548;48.778;9.252;2022-07-29T13:25:27;20.50;99.90
1123;DHT22;548;48.778;9.252;2022-07-29T13:27:54;20.70;99.90
1123;DHT22;548;48.778;9.252;2022-07-29T13:30:21;20.70;99.90
1123;DHT22;548;48.778;9.252;2022-07-29T13:32:50;20.60;99.90
1123;DHT22;548;48.778;9.252;2022-07-29T13:35:19;20.30;99.90
1123;DHT22;548;48.778;9.252;2022-07-29T13:37:46;20.10;99.90
1123;DHT22;548;48.778;9.252;2022-07-29T13:40:13;19.90;99.90
1123;DHT22;548;48.778;9.252;2022-07-29T13:42:40;19.80;99.90
1123;DHT22;548;48.778;9.252;2022-07-29T13:45:09;19.80;99.90
1123;DHT22;548;48.778;9.252;2022-07-29T13:47:36;19.90;99.90
1123;DHT22;548;48.778;9.252;2022-07-29T13:50:06;19.90;99.90
1123;DHT22;548;48.778;9.252;2022-07-29T13:52:33;19.90;99.90
1123;DHT22;548;48.778;9.252;2022-07-29T13:55:00;20.00;99.90
1123;DHT22;548;48.778;9.252;2022-07-29T13:57:27;20.00;99.90
1123;DHT22;548;48.778;9.252;2022-07-29T13:59:54;19.90;99.90
1123;DHT22;548;48.778;9.252;2022-07-29T14:02:21;19.90;99.90
1123;DHT22;548;48.778;9.252;2022-07-29T14:04:47;19.90;99.90
1123;DHT22;548;48.778;9.252;2022-07-29T14:07:15;20.30;99.90
1123;DHT22;548;48.778;9.252;2022-07-29T14:09:42;20.60;99.90
1123;DHT22;548;48.778;9.252;2022-07-29T14:12:09;20.90;99.90
1123;DHT22;548;48.778;9.252;2022-07-29T14:14:36;21.30;99.90
1123;DHT22;548;48.778;9.252;2022-07-29T14:17:03;21.90;99.90
1123;DHT22;548;48.778;9.252;2022-07-29T14:19:31;22.30;99.90
1123;DHT22;548;48.778;9.252;2022-07-29T14:22:03;22.70;99.90
1123;DHT22;548;48.778;9.252;2022-07-29T14:24:31;22.70;99.90
1123;DHT22;548;48.778;9.252;2022-07-29T14:26:58;22.80;99.90
1123;DHT22;548;48.778;9.252;2022-07-29T14:29:25;22.90;99.90
1123;DHT22;548;48.778;9.252;2022-07-29T14:31:52;22.80;99.90
1123;DHT22;548;48.778;9.252;2022-07-29T14:34:19;22.70;99.90
1123;DHT22;548;48.778;9.252;2022-07-29T14:36:45;22.90;99.90
1123;DHT22;548;48.778;9.252;2022-07-29T14:39:12;22.90;99.90
1123;DHT22;548;48.778;9.252;2022-07-29T14:41:42;23.00;99.90
1123;DHT22;548;48.778;9.252;2022-07-29T14:44:12;23.00;99.90
1123;DHT22;548;48.778;9.252;2022-07-29T14:46:39;23.10;99.90
1123;DHT22;548;48.778;9.252;2022-07-29T14:49:06;23.00;99.90
1123;DHT22;548;48.778;9.252;2022-07-29T14:51:33;23.20;99.90
1123;DHT22;548;48.778;9.252;2022-07-29T14:53:59;23.20;99.90
1123;DHT22;548;48.778;9.252;2022-07-29T14:56:26;23.30;99.90
1123;DHT22;548;48.778;9.252;2022-07-29T14:58:56;23.40;99.90
1123;DHT22;548;48.778;9.252;2022-07-29T15:01:23;23.50;99.90
1123;DHT22;548;48.778;9.252;2022-07-29T15:03:50;23.40;99.90
1123;DHT22;548;48.778;9.252;2022-07-29T15:06:17;23.20;99.90
1123;DHT22;548;48.778;9.252;2022-07-29T15:08:43;23.30;99.90
1123;DHT22;548;48.778;9.252;2022-07-29T15:11:10;23.10;99.90
1123;DHT22;548;48.778;9.252;2022-07-29T15:13:37;23.10;99.90
1123;DHT22;548;48.778;9.252;2022-07-29T15:16:06;23.10;99.90
1123;DHT22;548;48.778;9.252;2022-07-29T15:18:33;23.10;99.90
1123;DHT22;548;48.778;9.252;2022-07-29T15:20:59;23.00;99.90
1123;DHT22;548;48.778;9.252;2022-07-29T15:23:27;23.20;99.90
1123;DHT22;548;48.778;9.252;2022-07-29T15:25:54;23.30;99.90
1123;DHT22;548;48.778;9.252;2022-07-29T15:28:21;23.40;99.90
1123;DHT22;548;48.778;9.252;2022-07-29T15:30:47;23.50;99.90
1123;DHT22;548;48.778;9.252;2022-07-29T15:33:15;23.40;99.90
1123;DHT22;548;48.778;9.252;2022-07-29T15:35:42;23.30;99.90
1123;DHT22;548;48.778;9.252;2022-07-29T15:38:08;23.30;99.90
1123;DHT22;548;48.778;9.252;2022-07-29T15:40:36;23.30;99.90
1123;DHT22;548;48.778;9.252;2022-07-29T15:43:04;23.20;99.90
1123;DHT22;548;48.778;9.252;2022-07-29T15:45:35;23.20;99.90
1123;DHT22;548;48.778;9.252;2022-07-29T15:48:04;23.10;99.90
1123;DHT22;548;48.778;9.252;2022-07-29T15:50:32;23.20;99.90
1123;DHT22;548;48.778;9.252;2022-07-29T15:52:59;23.30;99.90
1123;DHT22;548;48.778;9.252;2022-07-29T15:55:26;23.30;99.90
1123;DHT22;548;48.778;9.252;2022-07-29T15:57:53;23.30;99.90
1123;DHT22;548;48.778;9.252;2022-07-29T16:00:20;23.30;99.90
1123;DHT22;548;48.778;9.252;2022-07-29T16:02:46;23.40;99.90
1123;DHT22;548;48.778;9.252;2022-07-29T16:05:13;23.30;99.90
1123;DHT22;548;48.778;9.252;2022-07-29T16:07:41;23.40;99.90
1123;DHT22;548;48.778;9.252;2022-07-29T16:10:08;23.40;99.90
1123;DHT22;548;48.778;9.252;2022-07-29T16:12:35;23.50;99.90
1123;DHT22;548;48.778;9.252;2022-07-29T16:15:02;23.60;99.90
1123;DHT22;548;48.778;9.252;2022-07-29T16:17:29;23.60;99.90
1123;DHT22;548;48.778;9.252;2022-07-29T16:19:56;23.60;99.90
1123;DHT22;548;48.778;9.252;2022-07-29T16:22:22;23.50;99.90
1123;DHT22;548;48.778;9.252;2022-07-29T16:24:50;23.60;99.90
1123;DHT22;548;48.778;9.252;2022-07-29T16:27:17;23.60;99.90
1123;DHT22;548;48.778;9.252;2022-07-29T16:29:49;23.60;99.90
1123;DHT22;548;48.778;9.252;2022-07-29T16:32:15;23.70;99.90